sensor_id;sensor_type;location;lat;lon;timestamp;P1;durP1;ratioP1;P2;durP2;ratioP2
45354;SDS011;31091;48.758;9.150;2023-06-19T00:02:14;9.45;;;6.15;;
45354;SDS011;31091;48.758;9.150;2023-06-19T00:04:59;9.68;;;6.28;;
45354;SDS011;31091;48.758;9.150;2023-06-19T00:07:45;7.47;;;5.75;;
45354;SDS011;31091;48.758;9.150;2023-06-19T00:10:30;9.38;;;5.80;;
45354;SDS011;31091;48.758;9.150;2023-06-19T00:13:15;9.43;;;5.75;;
45354;SDS011;31091;48.758;9.150;2023-06-19T00:16:01;9.95;;;5.38;;
45354;SDS011;31091;48.758;9.150;2023-06-19T00:18:46;7.50;;;5.72;;
45354;SDS011;31091;48.758;9.150;2023-06-19T00:21:31;7.80;;;5.57;;
45354;SDS011;31091;48.758;9.150;2023-06-19T00:24:16;8.38;;;5.63;;
45354;SDS011;31091;48.758;9.150;2023-06-19T00:27:02;8.80;;;5.35;;
45354;SDS011;31091;48.758;9.150;2023-06-19T00:29:47;7.30;;;5.32;;
45354;SDS011;31091;48.758;9.150;2023-06-19T00:32:32;13.18;;;6.50;;
45354;SDS011;31091;48.758;9.150;2023-06-19T00:35:31;11.85;;;6.50;;
45354;SDS011;31091;48.758;9.150;2023-06-19T00:38:16;8.70;;;5.97;;
45354;SDS011;31091;48.758;9.150;2023-06-19T00:41:01;7.10;;;5.43;;
45354;SDS011;31091;48.758;9.150;2023-06-19T00:43:46;9.13;;;5.82;;
45354;SDS011;31091;48.758;9.150;2023-06-19T00:46:31;9.02;;;5.80;;
45354;SDS011;31091;48.758;9.150;2023-06-19T00:49:17;7.78;;;5.40;;
45354;SDS011;31091;48.758;9.150;2023-06-19T00:52:02;11.15;;;5.72;;
45354;SDS011;31091;48.758;9.150;2023-06-19T00:54:47;9.45;;;6.22;;
45354;SDS011;31091;48.758;9.150;2023-06-19T00:57:33;9.27;;;5.22;;
45354;SDS011;31091;48.758;9.150;2023-06-19T01:00:18;9.15;;;5.82;;
45354;SDS011;31091;48.758;9.150;2023-06-19T01:03:03;8.45;;;5.30;;
45354;SDS011;31091;48.758;9.150;2023-06-19T01:05:49;8.40;;;5.00;;
45354;SDS011;31091;48.758;9.150;2023-06-19T01:14:59;6.55;;;5.22;;
45354;SDS011;31091;48.758;9.150;2023-06-19T01:17:45;11.10;;;5.68;;
45354;SDS011;31091;48.758;9.150;2023-06-19T01:20:31;12.57;;;5.75;;
45354;SDS011;31091;48.758;9.150;2023-06-19T01:23:16;7.75;;;5.35;;
45354;SDS011;31091;48.758;9.150;2023-06-19T01:26:01;6.57;;;5.43;;
45354;SDS011;31091;48.758;9.150;2023-06-19T01:28:46;6.93;;;4.88;;
45354;SDS011;31091;48.758;9.150;2023-06-19T01:31:36;8.68;;;4.45;;
45354;SDS011;31091;48.758;9.150;2023-06-19T01:34:23;11.07;;;4.57;;
45354;SDS011;31091;48.758;9.150;2023-06-19T01:37:10;8.18;;;4.70;;
45354;SDS011;31091;48.758;9.150;2023-06-19T01:39:57;7.15;;;5.10;;
45354;SDS011;31091;48.758;9.150;2023-06-19T01:42:43;8.68;;;4.45;;
45354;SDS011;31091;48.758;9.150;2023-06-19T01:45:28;8.48;;;4.45;;
45354;SDS011;31091;48.758;9.150;2023-06-19T01:48:14;8.70;;;4.85;;
45354;SDS011;31091;48.758;9.150;2023-06-19T01:50:59;6.50;;;4.18;;
45354;SDS011;31091;48.758;9.150;2023-06-19T01:53:44;7.28;;;5.22;;
45354;SDS011;31091;48.758;9.150;2023-06-19T01:56:30;6.65;;;4.30;;
45354;SDS011;31091;48.758;9.150;2023-06-19T01:59:15;6.90;;;4.18;;
45354;SDS011;31091;48.758;9.150;2023-06-19T02:02:00;7.88;;;4.82;;
45354;SDS011;31091;48.758;9.150;2023-06-19T02:04:45;5.68;;;3.75;;
45354;SDS011;31091;48.758;9.150;2023-06-19T02:07:31;5.15;;;3.80;;
45354;SDS011;31091;48.758;9.150;2023-06-19T02:10:16;6.53;;;4.55;;
45354;SDS011;31091;48.758;9.150;2023-06-19T02:13:01;5.28;;;4.07;;
45354;SDS011;31091;48.758;9.150;2023-06-19T02:15:46;6.72;;;3.78;;
45354;SDS011;31091;48.758;9.150;2023-06-19T02:18:32;6.90;;;4.20;;
45354;SDS011;31091;48.758;9.150;2023-06-19T02:21:17;5.88;;;3.90;;
45354;SDS011;31091;48.758;9.150;2023-06-19T02:24:02;5.25;;;3.65;;
45354;SDS011;31091;48.758;9.150;2023-06-19T02:26:48;8.50;;;4.20;;
45354;SDS011;31091;48.758;9.150;2023-06-19T02:29:33;5.47;;;3.60;;
45354;SDS011;31091;48.758;9.150;2023-06-19T02:32:22;6.00;;;3.75;;
45354;SDS011;31091;48.758;9.150;2023-06-19T02:35:09;5.93;;;3.63;;
45354;SDS011;31091;48.758;9.150;2023-06-19T02:37:54;4.82;;;3.53;;
45354;SDS011;31091;48.758;9.150;2023-06-19T02:40:39;3.83;;;3.22;;
45354;SDS011;31091;48.758;9.150;2023-06-19T02:43:24;7.65;;;3.72;;
45354;SDS011;31091;48.758;9.150;2023-06-19T02:46:10;6.53;;;3.63;;
45354;SDS011;31091;48.758;9.150;2023-06-19T02:48:55;7.03;;;3.80;;
45354;SDS011;31091;48.758;9.150;2023-06-19T02:51:40;6.65;;;4.38;;
45354;SDS011;31091;48.758;9.150;2023-06-19T02:54:25;7.43;;;4.57;;
45354;SDS011;31091;48.758;9.150;2023-06-19T02:57:10;5.05;;;3.60;;
45354;SDS011;31091;48.758;9.150;2023-06-19T02:59:56;4.25;;;3.10;;
45354;SDS011;31091;48.758;9.150;2023-06-19T03:02:41;8.23;;;3.55;;
45354;SDS011;31091;48.758;9.150;2023-06-19T03:05:26;5.57;;;3.75;;
45354;SDS011;31091;48.758;9.150;2023-06-19T03:08:15;4.57;;;3.83;;
45354;SDS011;31091;48.758;9.150;2023-06-19T03:11:00;5.95;;;3.28;;
45354;SDS011;31091;48.758;9.150;2023-06-19T03:13:52;4.25;;;3.10;;
45354;SDS011;31091;48.758;9.150;2023-06-19T03:16:37;3.70;;;2.97;;
45354;SDS011;31091;48.758;9.150;2023-06-19T03:19:23;4.20;;;3.40;;
45354;SDS011;31091;48.758;9.150;2023-06-19T03:22:08;3.70;;;3.05;;
45354;SDS011;31091;48.758;9.150;2023-06-19T03:24:53;4.35;;;3.00;;
45354;SDS011;31091;48.758;9.150;2023-06-19T03:27:39;5.35;;;3.05;;
45354;SDS011;31091;48.758;9.150;2023-06-19T03:30:24;3.80;;;3.10;;
45354;SDS011;31091;48.758;9.150;2023-06-19T03:33:09;4.50;;;2.90;;
45354;SDS011;31091;48.758;9.150;2023-06-19T03:35:54;4.68;;;2.72;;
45354;SDS011;31091;48.758;9.150;2023-06-19T03:38:40;3.63;;;3.05;;
45354;SDS011;31091;48.758;9.150;2023-06-19T03:41:25;4.18;;;2.85;;
45354;SDS011;31091;48.758;9.150;2023-06-19T03:44:10;4.10;;;2.90;;
45354;SDS011;31091;48.758;9.150;2023-06-19T03:46:55;4.07;;;2.38;;
45354;SDS011;31091;48.758;9.150;2023-06-19T03:49:40;3.65;;;2.78;;
45354;SDS011;31091;48.758;9.150;2023-06-19T03:52:26;4.88;;;2.92;;
45354;SDS011;31091;48.758;9.150;2023-06-19T03:55:11;5.07;;;2.92;;
45354;SDS011;31091;48.758;9.150;2023-06-19T03:57:56;4.45;;;2.83;;
45354;SDS011;31091;48.758;9.150;2023-06-19T04:00:41;5.47;;;3.35;;
45354;SDS011;31091;48.758;9.150;2023-06-19T04:03:26;5.57;;;3.33;;
45354;SDS011;31091;48.758;9.150;2023-06-19T04:06:12;3.22;;;2.78;;
45354;SDS011;31091;48.758;9.150;2023-06-19T04:08:57;3.13;;;2.50;;
45354;SDS011;31091;48.758;9.150;2023-06-19T04:11:42;3.97;;;2.80;;
45354;SDS011;31091;48.758;9.150;2023-06-19T04:14:27;4.95;;;2.63;;
45354;SDS011;31091;48.758;9.150;2023-06-19T04:17:13;3.67;;;2.72;;
45354;SDS011;31091;48.758;9.150;2023-06-19T04:19:58;6.85;;;2.63;;
45354;SDS011;31091;48.758;9.150;2023-06-19T04:22:44;4.07;;;2.72;;
45354;SDS011;31091;48.758;9.150;2023-06-19T04:25:29;3.90;;;2.70;;
45354;SDS011;31091;48.758;9.150;2023-06-19T04:28:14;3.80;;;2.70;;
45354;SDS011;31091;48.758;9.150;2023-06-19T04:30:59;3.83;;;3.05;;
45354;SDS011;31091;48.758;9.150;2023-06-19T04:33:45;5.20;;;3.08;;
45354;SDS011;31091;48.758;9.150;2023-06-19T04:36:30;4.13;;;2.78;;
45354;SDS011;31091;48.758;9.150;2023-06-19T04:39:16;3.88;;;2.80;;
45354;SDS011;31091;48.758;9.150;2023-06-19T04:42:02;5.45;;;2.85;;
45354;SDS011;31091;48.758;9.150;2023-06-19T04:44:47;5.32;;;3.10;;
45354;SDS011;31091;48.758;9.150;2023-06-19T04:47:32;3.75;;;2.60;;
45354;SDS011;31091;48.758;9.150;2023-06-19T04:50:18;5.55;;;3.10;;
45354;SDS011;31091;48.758;9.150;2023-06-19T04:53:03;5.20;;;2.60;;
45354;SDS011;31091;48.758;9.150;2023-06-19T04:55:48;3.42;;;2.40;;
45354;SDS011;31091;48.758;9.150;2023-06-19T04:58:34;4.22;;;2.75;;
45354;SDS011;31091;48.758;9.150;2023-06-19T05:01:19;3.78;;;2.65;;
45354;SDS011;31091;48.758;9.150;2023-06-19T05:04:12;4.38;;;2.38;;
45354;SDS011;31091;48.758;9.150;2023-06-19T05:06:57;4.75;;;2.65;;
45354;SDS011;31091;48.758;9.150;2023-06-19T05:09:42;3.03;;;2.40;;
45354;SDS011;31091;48.758;9.150;2023-06-19T05:12:28;3.58;;;2.67;;
45354;SDS011;31091;48.758;9.150;2023-06-19T05:15:13;2.92;;;2.25;;
45354;SDS011;31091;48.758;9.150;2023-06-19T05:17:58;2.95;;;2.08;;
45354;SDS011;31091;48.758;9.150;2023-06-19T05:20:44;3.65;;;2.25;;
45354;SDS011;31091;48.758;9.150;2023-06-19T05:23:29;4.97;;;2.63;;
45354;SDS011;31091;48.758;9.150;2023-06-19T05:26:14;8.02;;;3.42;;
45354;SDS011;31091;48.758;9.150;2023-06-19T05:29:00;7.72;;;3.90;;
45354;SDS011;31091;48.758;9.150;2023-06-19T05:31:45;13.18;;;4.78;;
45354;SDS011;31091;48.758;9.150;2023-06-19T05:34:31;4.97;;;2.92;;
45354;SDS011;31091;48.758;9.150;2023-06-19T05:37:16;10.40;;;3.03;;
45354;SDS011;31091;48.758;9.150;2023-06-19T05:40:01;6.22;;;2.85;;
45354;SDS011;31091;48.758;9.150;2023-06-19T05:42:47;5.07;;;2.90;;
45354;SDS011;31091;48.758;9.150;2023-06-19T05:45:32;8.27;;;3.25;;
45354;SDS011;31091;48.758;9.150;2023-06-19T05:48:17;8.93;;;3.63;;
45354;SDS011;31091;48.758;9.150;2023-06-19T05:51:02;5.40;;;2.92;;
45354;SDS011;31091;48.758;9.150;2023-06-19T05:53:47;5.07;;;2.67;;
45354;SDS011;31091;48.758;9.150;2023-06-19T05:56:34;6.78;;;2.95;;
45354;SDS011;31091;48.758;9.150;2023-06-19T05:59:19;3.45;;;2.80;;
45354;SDS011;31091;48.758;9.150;2023-06-19T06:02:05;3.35;;;2.30;;
45354;SDS011;31091;48.758;9.150;2023-06-19T06:04:51;7.25;;;2.67;;
45354;SDS011;31091;48.758;9.150;2023-06-19T06:07:36;5.53;;;2.67;;
45354;SDS011;31091;48.758;9.150;2023-06-19T06:10:22;4.28;;;2.65;;
45354;SDS011;31091;48.758;9.150;2023-06-19T06:13:07;3.90;;;2.67;;
45354;SDS011;31091;48.758;9.150;2023-06-19T06:15:52;3.75;;;2.53;;
45354;SDS011;31091;48.758;9.150;2023-06-19T06:18:37;3.55;;;2.67;;
45354;SDS011;31091;48.758;9.150;2023-06-19T06:21:23;3.70;;;2.22;;
45354;SDS011;31091;48.758;9.150;2023-06-19T06:24:08;4.38;;;2.50;;
45354;SDS011;31091;48.758;9.150;2023-06-19T06:26:53;4.60;;;2.85;;
45354;SDS011;31091;48.758;9.150;2023-06-19T06:29:39;7.13;;;2.40;;
45354;SDS011;31091;48.758;9.150;2023-06-19T06:32:24;4.50;;;2.55;;
45354;SDS011;31091;48.758;9.150;2023-06-19T06:35:09;4.28;;;2.70;;
45354;SDS011;31091;48.758;9.150;2023-06-19T06:37:54;4.13;;;2.33;;
45354;SDS011;31091;48.758;9.150;2023-06-19T06:40:40;2.85;;;2.03;;
45354;SDS011;31091;48.758;9.150;2023-06-19T06:43:26;5.25;;;2.63;;
45354;SDS011;31091;48.758;9.150;2023-06-19T06:46:11;7.20;;;2.35;;
45354;SDS011;31091;48.758;9.150;2023-06-19T06:48:57;4.07;;;2.25;;
45354;SDS011;31091;48.758;9.150;2023-06-19T06:51:42;2.10;;;1.90;;
45354;SDS011;31091;48.758;9.150;2023-06-19T06:54:27;2.47;;;1.90;;
45354;SDS011;31091;48.758;9.150;2023-06-19T06:57:12;2.78;;;1.80;;
45354;SDS011;31091;48.758;9.150;2023-06-19T06:59:58;3.50;;;1.90;;
45354;SDS011;31091;48.758;9.150;2023-06-19T07:02:43;3.17;;;1.77;;
45354;SDS011;31091;48.758;9.150;2023-06-19T07:05:28;6.38;;;2.30;;
45354;SDS011;31091;48.758;9.150;2023-06-19T07:08:14;2.17;;;1.80;;
45354;SDS011;31091;48.758;9.150;2023-06-19T07:11:00;2.95;;;1.92;;
45354;SDS011;31091;48.758;9.150;2023-06-19T07:13:45;2.50;;;1.60;;
45354;SDS011;31091;48.758;9.150;2023-06-19T07:16:30;2.50;;;1.90;;
45354;SDS011;31091;48.758;9.150;2023-06-19T07:19:15;2.58;;;1.92;;
45354;SDS011;31091;48.758;9.150;2023-06-19T07:22:01;1.95;;;1.83;;
45354;SDS011;31091;48.758;9.150;2023-06-19T07:24:46;2.10;;;1.75;;
45354;SDS011;31091;48.758;9.150;2023-06-19T07:27:31;3.58;;;1.92;;
45354;SDS011;31091;48.758;9.150;2023-06-19T07:30:16;4.72;;;2.10;;
45354;SDS011;31091;48.758;9.150;2023-06-19T07:33:02;2.25;;;1.88;;
45354;SDS011;31091;48.758;9.150;2023-06-19T07:35:47;3.00;;;1.90;;
45354;SDS011;31091;48.758;9.150;2023-06-19T07:38:32;3.70;;;1.95;;
45354;SDS011;31091;48.758;9.150;2023-06-19T07:41:18;2.90;;;2.38;;
45354;SDS011;31091;48.758;9.150;2023-06-19T07:44:03;2.65;;;1.95;;
45354;SDS011;31091;48.758;9.150;2023-06-19T07:46:48;5.63;;;2.25;;
45354;SDS011;31091;48.758;9.150;2023-06-19T07:49:34;3.25;;;2.10;;
45354;SDS011;31091;48.758;9.150;2023-06-19T07:52:19;2.88;;;2.00;;
45354;SDS011;31091;48.758;9.150;2023-06-19T07:55:04;2.10;;;1.75;;
45354;SDS011;31091;48.758;9.150;2023-06-19T07:57:50;2.20;;;1.60;;
45354;SDS011;31091;48.758;9.150;2023-06-19T08:00:37;2.75;;;2.10;;
45354;SDS011;31091;48.758;9.150;2023-06-19T08:03:22;3.20;;;2.03;;
45354;SDS011;31091;48.758;9.150;2023-06-19T08:06:09;2.78;;;1.95;;
45354;SDS011;31091;48.758;9.150;2023-06-19T08:08:54;4.70;;;1.98;;
45354;SDS011;31091;48.758;9.150;2023-06-19T08:11:39;5.15;;;2.53;;
45354;SDS011;31091;48.758;9.150;2023-06-19T08:14:24;4.57;;;2.40;;
45354;SDS011;31091;48.758;9.150;2023-06-19T08:17:10;2.50;;;1.95;;
45354;SDS011;31091;48.758;9.150;2023-06-19T08:19:55;4.28;;;2.20;;
45354;SDS011;31091;48.758;9.150;2023-06-19T08:22:40;2.88;;;2.08;;
45354;SDS011;31091;48.758;9.150;2023-06-19T08:25:25;3.97;;;2.42;;
45354;SDS011;31091;48.758;9.150;2023-06-19T08:28:11;2.60;;;1.90;;
45354;SDS011;31091;48.758;9.150;2023-06-19T08:30:56;2.28;;;2.08;;
45354;SDS011;31091;48.758;9.150;2023-06-19T08:33:41;2.70;;;2.15;;
45354;SDS011;31091;48.758;9.150;2023-06-19T08:36:26;2.78;;;2.25;;
45354;SDS011;31091;48.758;9.150;2023-06-19T08:39:11;3.08;;;2.10;;
45354;SDS011;31091;48.758;9.150;2023-06-19T08:41:57;4.10;;;2.15;;
45354;SDS011;31091;48.758;9.150;2023-06-19T08:44:42;3.03;;;2.50;;
45354;SDS011;31091;48.758;9.150;2023-06-19T08:47:31;2.42;;;2.10;;
45354;SDS011;31091;48.758;9.150;2023-06-19T08:50:16;2.70;;;2.33;;
45354;SDS011;31091;48.758;9.150;2023-06-19T08:53:02;4.75;;;2.30;;
45354;SDS011;31091;48.758;9.150;2023-06-19T08:55:47;5.25;;;2.42;;
45354;SDS011;31091;48.758;9.150;2023-06-19T08:58:32;2.38;;;2.17;;
45354;SDS011;31091;48.758;9.150;2023-06-19T09:01:18;2.85;;;2.20;;
45354;SDS011;31091;48.758;9.150;2023-06-19T09:04:11;3.90;;;2.20;;
45354;SDS011;31091;48.758;9.150;2023-06-19T09:07:02;3.85;;;2.38;;
45354;SDS011;31091;48.758;9.150;2023-06-19T09:09:47;5.07;;;2.20;;
45354;SDS011;31091;48.758;9.150;2023-06-19T09:12:32;2.60;;;2.08;;
45354;SDS011;31091;48.758;9.150;2023-06-19T09:15:18;2.67;;;2.15;;
45354;SDS011;31091;48.758;9.150;2023-06-19T09:18:04;2.38;;;1.80;;
45354;SDS011;31091;48.758;9.150;2023-06-19T09:20:51;2.58;;;1.98;;
45354;SDS011;31091;48.758;9.150;2023-06-19T09:23:37;2.10;;;1.90;;
45354;SDS011;31091;48.758;9.150;2023-06-19T09:26:22;2.35;;;1.98;;
45354;SDS011;31091;48.758;9.150;2023-06-19T09:29:14;3.28;;;1.90;;
45354;SDS011;31091;48.758;9.150;2023-06-19T09:32:13;4.75;;;2.53;;
45354;SDS011;31091;48.758;9.150;2023-06-19T09:34:58;2.13;;;1.92;;
45354;SDS011;31091;48.758;9.150;2023-06-19T09:37:43;2.53;;;2.00;;
45354;SDS011;31091;48.758;9.150;2023-06-19T09:40:30;3.13;;;1.98;;
45354;SDS011;31091;48.758;9.150;2023-06-19T09:43:17;2.58;;;2.03;;
45354;SDS011;31091;48.758;9.150;2023-06-19T09:46:05;2.72;;;1.73;;
45354;SDS011;31091;48.758;9.150;2023-06-19T09:48:50;2.83;;;1.85;;
45354;SDS011;31091;48.758;9.150;2023-06-19T09:51:38;3.55;;;1.88;;
45354;SDS011;31091;48.758;9.150;2023-06-19T09:54:26;2.33;;;1.90;;
45354;SDS011;31091;48.758;9.150;2023-06-19T09:57:11;3.70;;;2.55;;
45354;SDS011;31091;48.758;9.150;2023-06-19T09:59:57;3.88;;;2.10;;
45354;SDS011;31091;48.758;9.150;2023-06-19T10:02:44;4.25;;;2.33;;
45354;SDS011;31091;48.758;9.150;2023-06-19T10:05:30;3.00;;;2.65;;
45354;SDS011;31091;48.758;9.150;2023-06-19T10:08:25;2.17;;;1.98;;
45354;SDS011;31091;48.758;9.150;2023-06-19T10:11:11;2.75;;;2.20;;
45354;SDS011;31091;48.758;9.150;2023-06-19T10:14:05;5.13;;;2.00;;
45354;SDS011;31091;48.758;9.150;2023-06-19T10:16:50;2.30;;;2.10;;
45354;SDS011;31091;48.758;9.150;2023-06-19T10:19:35;13.18;;;5.97;;
45354;SDS011;31091;48.758;9.150;2023-06-19T10:22:20;7.65;;;4.53;;
45354;SDS011;31091;48.758;9.150;2023-06-19T10:25:09;11.97;;;5.83;;
45354;SDS011;31091;48.758;9.150;2023-06-19T10:28:06;6.22;;;3.85;;
45354;SDS011;31091;48.758;9.150;2023-06-19T10:31:05;16.88;;;6.82;;
45354;SDS011;31091;48.758;9.150;2023-06-19T10:33:50;10.13;;;4.72;;
45354;SDS011;31091;48.758;9.150;2023-06-19T10:36:35;5.00;;;3.05;;
45354;SDS011;31091;48.758;9.150;2023-06-19T10:39:21;7.45;;;3.47;;
45354;SDS011;31091;48.758;9.150;2023-06-19T10:42:06;5.75;;;3.33;;
45354;SDS011;31091;48.758;9.150;2023-06-19T10:44:58;6.40;;;2.95;;
45354;SDS011;31091;48.758;9.150;2023-06-19T10:47:44;6.32;;;3.17;;
45354;SDS011;31091;48.758;9.150;2023-06-19T10:50:30;3.90;;;2.72;;
45354;SDS011;31091;48.758;9.150;2023-06-19T10:53:29;4.72;;;2.80;;
45354;SDS011;31091;48.758;9.150;2023-06-19T10:56:15;4.05;;;3.05;;
45354;SDS011;31091;48.758;9.150;2023-06-19T10:59:05;3.33;;;2.72;;
45354;SDS011;31091;48.758;9.150;2023-06-19T11:01:51;4.57;;;3.10;;
45354;SDS011;31091;48.758;9.150;2023-06-19T11:04:37;5.97;;;3.10;;
45354;SDS011;31091;48.758;9.150;2023-06-19T11:07:24;7.85;;;3.20;;
45354;SDS011;31091;48.758;9.150;2023-06-19T11:10:10;6.82;;;3.13;;
45354;SDS011;31091;48.758;9.150;2023-06-19T11:13:03;4.50;;;3.10;;
45354;SDS011;31091;48.758;9.150;2023-06-19T11:15:48;4.10;;;2.70;;
45354;SDS011;31091;48.758;9.150;2023-06-19T11:18:36;5.87;;;2.93;;
45354;SDS011;31091;48.758;9.150;2023-06-19T11:21:28;5.38;;;2.80;;
45354;SDS011;31091;48.758;9.150;2023-06-19T11:24:15;3.53;;;2.85;;
45354;SDS011;31091;48.758;9.150;2023-06-19T11:27:00;3.65;;;2.40;;
45354;SDS011;31091;48.758;9.150;2023-06-19T11:29:45;5.63;;;3.38;;
45354;SDS011;31091;48.758;9.150;2023-06-19T11:32:31;3.83;;;3.00;;
45354;SDS011;31091;48.758;9.150;2023-06-19T11:35:17;3.40;;;3.10;;
45354;SDS011;31091;48.758;9.150;2023-06-19T11:38:02;5.22;;;2.63;;
45354;SDS011;31091;48.758;9.150;2023-06-19T11:40:48;4.40;;;2.58;;
45354;SDS011;31091;48.758;9.150;2023-06-19T11:43:34;3.72;;;2.72;;
45354;SDS011;31091;48.758;9.150;2023-06-19T11:46:20;4.22;;;2.90;;
45354;SDS011;31091;48.758;9.150;2023-06-19T11:49:13;3.40;;;2.45;;
45354;SDS011;31091;48.758;9.150;2023-06-19T11:51:59;3.40;;;3.10;;
45354;SDS011;31091;48.758;9.150;2023-06-19T11:54:44;6.35;;;2.88;;
45354;SDS011;31091;48.758;9.150;2023-06-19T11:57:29;5.88;;;3.35;;
45354;SDS011;31091;48.758;9.150;2023-06-19T12:00:15;3.92;;;2.50;;
45354;SDS011;31091;48.758;9.150;2023-06-19T12:03:01;4.32;;;2.65;;
45354;SDS011;31091;48.758;9.150;2023-06-19T12:05:47;5.18;;;2.90;;
45354;SDS011;31091;48.758;9.150;2023-06-19T12:08:32;4.25;;;3.20;;
45354;SDS011;31091;48.758;9.150;2023-06-19T12:11:18;4.22;;;2.95;;
45354;SDS011;31091;48.758;9.150;2023-06-19T12:14:03;3.70;;;2.75;;
45354;SDS011;31091;48.758;9.150;2023-06-19T12:16:48;4.22;;;3.20;;
45354;SDS011;31091;48.758;9.150;2023-06-19T12:19:34;5.75;;;2.97;;
45354;SDS011;31091;48.758;9.150;2023-06-19T12:22:19;5.65;;;3.13;;
45354;SDS011;31091;48.758;9.150;2023-06-19T12:25:04;5.80;;;3.30;;
45354;SDS011;31091;48.758;9.150;2023-06-19T12:27:50;3.55;;;2.97;;
45354;SDS011;31091;48.758;9.150;2023-06-19T12:30:35;6.60;;;2.92;;
45354;SDS011;31091;48.758;9.150;2023-06-19T12:33:21;4.03;;;2.90;;
45354;SDS011;31091;48.758;9.150;2023-06-19T12:36:06;4.22;;;2.80;;
45354;SDS011;31091;48.758;9.150;2023-06-19T12:38:52;4.22;;;3.22;;
45354;SDS011;31091;48.758;9.150;2023-06-19T12:41:38;4.18;;;2.80;;
45354;SDS011;31091;48.758;9.150;2023-06-19T12:44:23;4.88;;;2.63;;
45354;SDS011;31091;48.758;9.150;2023-06-19T12:47:09;3.72;;;3.05;;
45354;SDS011;31091;48.758;9.150;2023-06-19T12:49:54;5.95;;;3.17;;
45354;SDS011;31091;48.758;9.150;2023-06-19T12:52:40;5.32;;;3.00;;
45354;SDS011;31091;48.758;9.150;2023-06-19T12:55:25;4.32;;;2.97;;
45354;SDS011;31091;48.758;9.150;2023-06-19T12:58:10;3.58;;;2.83;;
45354;SDS011;31091;48.758;9.150;2023-06-19T13:00:55;7.22;;;3.30;;
45354;SDS011;31091;48.758;9.150;2023-06-19T13:03:41;3.70;;;3.00;;
45354;SDS011;31091;48.758;9.150;2023-06-19T13:06:26;6.30;;;4.13;;
45354;SDS011;31091;48.758;9.150;2023-06-19T13:09:11;5.47;;;3.10;;
45354;SDS011;31091;48.758;9.150;2023-06-19T13:11:56;6.95;;;3.60;;
45354;SDS011;31091;48.758;9.150;2023-06-19T13:14:42;4.10;;;3.13;;
45354;SDS011;31091;48.758;9.150;2023-06-19T13:17:27;5.63;;;3.17;;
45354;SDS011;31091;48.758;9.150;2023-06-19T13:20:12;3.92;;;3.13;;
45354;SDS011;31091;48.758;9.150;2023-06-19T13:22:59;3.83;;;3.20;;
45354;SDS011;31091;48.758;9.150;2023-06-19T13:25:44;5.40;;;3.20;;
45354;SDS011;31091;48.758;9.150;2023-06-19T13:28:29;3.75;;;2.90;;
45354;SDS011;31091;48.758;9.150;2023-06-19T13:31:14;4.68;;;3.30;;
45354;SDS011;31091;48.758;9.150;2023-06-19T13:34:00;4.80;;;3.63;;
45354;SDS011;31091;48.758;9.150;2023-06-19T13:36:45;5.18;;;2.92;;
45354;SDS011;31091;48.758;9.150;2023-06-19T13:39:30;2.78;;;2.58;;
45354;SDS011;31091;48.758;9.150;2023-06-19T13:42:16;4.90;;;2.70;;
45354;SDS011;31091;48.758;9.150;2023-06-19T13:45:02;4.43;;;3.08;;
45354;SDS011;31091;48.758;9.150;2023-06-19T13:47:47;3.95;;;3.30;;
45354;SDS011;31091;48.758;9.150;2023-06-19T13:50:32;5.40;;;3.47;;
45354;SDS011;31091;48.758;9.150;2023-06-19T13:53:18;5.75;;;3.17;;
45354;SDS011;31091;48.758;9.150;2023-06-19T13:56:04;3.63;;;2.33;;
45354;SDS011;31091;48.758;9.150;2023-06-19T13:58:50;3.83;;;3.15;;
45354;SDS011;31091;48.758;9.150;2023-06-19T14:01:35;5.20;;;3.45;;
45354;SDS011;31091;48.758;9.150;2023-06-19T14:04:20;4.15;;;2.92;;
45354;SDS011;31091;48.758;9.150;2023-06-19T14:07:06;3.47;;;2.83;;
45354;SDS011;31091;48.758;9.150;2023-06-19T14:09:51;4.35;;;2.90;;
45354;SDS011;31091;48.758;9.150;2023-06-19T14:12:38;5.60;;;2.97;;
45354;SDS011;31091;48.758;9.150;2023-06-19T14:15:23;4.10;;;2.65;;
45354;SDS011;31091;48.758;9.150;2023-06-19T14:18:08;5.95;;;2.88;;
45354;SDS011;31091;48.758;9.150;2023-06-19T14:20:54;3.72;;;2.80;;
45354;SDS011;31091;48.758;9.150;2023-06-19T14:23:39;5.45;;;2.92;;
45354;SDS011;31091;48.758;9.150;2023-06-19T14:26:28;3.60;;;2.92;;
45354;SDS011;31091;48.758;9.150;2023-06-19T14:29:13;3.45;;;2.85;;
45354;SDS011;31091;48.758;9.150;2023-06-19T14:32:00;3.42;;;2.72;;
45354;SDS011;31091;48.758;9.150;2023-06-19T14:34:45;4.45;;;3.08;;
45354;SDS011;31091;48.758;9.150;2023-06-19T14:37:31;5.07;;;3.00;;
45354;SDS011;31091;48.758;9.150;2023-06-19T14:40:16;3.90;;;3.10;;
45354;SDS011;31091;48.758;9.150;2023-06-19T14:43:01;5.95;;;3.22;;
45354;SDS011;31091;48.758;9.150;2023-06-19T14:45:47;6.10;;;3.55;;
45354;SDS011;31091;48.758;9.150;2023-06-19T14:48:32;3.58;;;2.95;;
45354;SDS011;31091;48.758;9.150;2023-06-19T14:51:17;3.33;;;2.85;;
45354;SDS011;31091;48.758;9.150;2023-06-19T14:54:02;4.68;;;3.20;;
45354;SDS011;31091;48.758;9.150;2023-06-19T14:56:48;3.63;;;2.85;;
45354;SDS011;31091;48.758;9.150;2023-06-19T14:59:34;4.60;;;2.50;;
45354;SDS011;31091;48.758;9.150;2023-06-19T15:02:20;5.53;;;2.83;;
45354;SDS011;31091;48.758;9.150;2023-06-19T15:05:05;6.00;;;3.13;;
45354;SDS011;31091;48.758;9.150;2023-06-19T15:07:50;3.65;;;3.05;;
45354;SDS011;31091;48.758;9.150;2023-06-19T15:10:36;4.57;;;3.28;;
45354;SDS011;31091;48.758;9.150;2023-06-19T15:13:21;3.45;;;3.10;;
45354;SDS011;31091;48.758;9.150;2023-06-19T15:16:07;4.90;;;2.75;;
45354;SDS011;31091;48.758;9.150;2023-06-19T15:18:53;3.60;;;2.83;;
45354;SDS011;31091;48.758;9.150;2023-06-19T15:21:38;4.50;;;3.00;;
45354;SDS011;31091;48.758;9.150;2023-06-19T15:24:23;4.78;;;3.28;;
45354;SDS011;31091;48.758;9.150;2023-06-19T15:27:09;5.22;;;3.55;;
45354;SDS011;31091;48.758;9.150;2023-06-19T15:29:55;5.97;;;3.38;;
45354;SDS011;31091;48.758;9.150;2023-06-19T15:32:40;4.28;;;2.95;;
45354;SDS011;31091;48.758;9.150;2023-06-19T15:35:25;4.32;;;2.97;;
45354;SDS011;31091;48.758;9.150;2023-06-19T15:38:10;4.35;;;2.95;;
45354;SDS011;31091;48.758;9.150;2023-06-19T15:40:56;5.18;;;2.90;;
45354;SDS011;31091;48.758;9.150;2023-06-19T15:43:41;4.55;;;3.08;;
45354;SDS011;31091;48.758;9.150;2023-06-19T15:46:26;3.35;;;3.05;;
45354;SDS011;31091;48.758;9.150;2023-06-19T15:49:12;6.50;;;3.28;;
45354;SDS011;31091;48.758;9.150;2023-06-19T15:51:57;4.05;;;2.90;;
45354;SDS011;31091;48.758;9.150;2023-06-19T15:54:43;4.80;;;3.00;;
45354;SDS011;31091;48.758;9.150;2023-06-19T15:57:28;6.40;;;3.25;;
45354;SDS011;31091;48.758;9.150;2023-06-19T16:00:13;4.40;;;3.08;;
45354;SDS011;31091;48.758;9.150;2023-06-19T16:02:59;4.00;;;2.70;;
45354;SDS011;31091;48.758;9.150;2023-06-19T16:05:44;4.85;;;3.28;;
45354;SDS011;31091;48.758;9.150;2023-06-19T16:08:33;5.65;;;3.42;;
45354;SDS011;31091;48.758;9.150;2023-06-19T16:11:18;4.97;;;3.20;;
45354;SDS011;31091;48.758;9.150;2023-06-19T16:14:03;5.55;;;3.00;;
45354;SDS011;31091;48.758;9.150;2023-06-19T16:16:49;4.93;;;2.83;;
45354;SDS011;31091;48.758;9.150;2023-06-19T16:19:34;4.70;;;3.35;;
45354;SDS011;31091;48.758;9.150;2023-06-19T16:22:20;4.45;;;3.17;;
45354;SDS011;31091;48.758;9.150;2023-06-19T16:25:05;4.45;;;2.72;;
45354;SDS011;31091;48.758;9.150;2023-06-19T16:27:53;3.63;;;2.58;;
45354;SDS011;31091;48.758;9.150;2023-06-19T16:30:40;4.15;;;3.22;;
45354;SDS011;31091;48.758;9.150;2023-06-19T16:33:25;6.18;;;3.53;;
45354;SDS011;31091;48.758;9.150;2023-06-19T16:36:10;5.88;;;3.67;;
45354;SDS011;31091;48.758;9.150;2023-06-19T16:38:56;4.93;;;2.72;;
45354;SDS011;31091;48.758;9.150;2023-06-19T16:41:41;4.53;;;3.60;;
45354;SDS011;31091;48.758;9.150;2023-06-19T16:44:26;5.25;;;3.33;;
45354;SDS011;31091;48.758;9.150;2023-06-19T16:47:11;6.45;;;3.60;;